新千歳空港の過去48時間の天気

新千歳空港 (Sapporo/New Chitose)

現在時刻: 10/20 03:39 JST (10/19 18:39 UTC) 以下の時間は現地時間です。

過去48時間のMETAR気象情報
時間 風向 風速(m/s) 視程 気温(℃) 湿度(%) 気圧(hPa) 天気現象
20 03:00 2 10km以上 1 93 1020 部分霧
20 02:30 2 10km以上 2 87 1020 部分霧
20 02:00 北北西 1 10km以上 2 87 1021 部分霧
20 01:30 北北西 2 10km以上 2 87 1021
20 01:00 不定 1 10km以上 2 87 1020
20 00:30 北西 2 10km以上 2 93 1020
20 00:00 北北東 1 10km以上 2 93 1020
19 23:30 北北西 2 10km以上 2 93 1020
19 23:00 不定 1 10km以上 2 93 1020
19 22:30 不定 1 10km以上 4 87 1020
19 22:00 南南西 1 10km以上 4 87 1020
19 21:30 不定 1 10km以上 4 93 1021
19 21:00 1 10km以上 4 93 1020
19 20:30 不定 1 10km以上 5 93 1020
19 20:00 南東 1 10km以上 5 93 1020
19 19:30 不定 1 10km以上 6 87 1020
19 19:00 2 10km以上 7 81 1020
19 18:30 不定 1 10km以上 6 81 1020
19 18:00 不定 1 10km以上 8 76 1020
19 17:30 不定 1 10km以上 10 66 1019
19 17:00 2 10km以上 10 66 1019
19 16:30 南南西 2 10km以上 12 54 1019
19 16:00 南南西 2 10km以上 13 51 1019
19 15:30 北東 2 10km以上 14 47 1019
19 15:00 北北東 2 10km以上 15 31 1019
19 14:30 不定 1 10km以上 15 39 1019
19 14:00 不定 2 10km以上 15 39 1020
19 13:30 不定 2 10km以上 15 39 1020
19 13:00 2 10km以上 14 41 1020
19 12:30 北北東 3 10km以上 14 41 1020
19 12:00 不定 2 10km以上 14 41 1021
19 11:30 不定 2 10km以上 13 44 1021
19 11:00 北東 2 10km以上 13 44 1022
19 10:30 不定 1 10km以上 12 50 1022
19 10:00 不定 1 10km以上 11 62 1022
19 09:30 北北西 2 10km以上 10 66 1022
19 09:00 北西 3 10km以上 9 71 1022
19 08:30 北北西 2 10km以上 7 76 1022
19 08:00 北北西 2 10km以上 5 87 1022
19 07:30 北北西 2 8000m 4 87 1022
19 07:00 北北西 2 5000m 1 100 1022 散在した霧 もや
19 06:39 北北西 2 3200m 0 100 1022 部分霧 もや
19 06:30 2 900m 0 100 1022 氷霧
19 06:18 2 900m -1 100 1022 氷霧
19 06:09 2 4900m -1 100 1022 氷霧
19 06:00 2 10km以上 0 93 1022 部分霧
19 05:30 2 10km以上 0 93 1022 散在した霧
19 05:24 北北西 2 10km以上 0 100 1022 部分霧
19 05:00 北北西 1 8000m 0 93 1022 部分霧
19 04:30 北北西 2 8000m 0 100 1022 部分霧
19 04:00 北東 1 10km以上 1 93 1022
19 03:30 2 10km以上 2 93 1022
19 03:00 2 10km以上 1 93 1022
19 02:30 北北西 2 10km以上 2 93 1022
19 02:00 1 10km以上 2 87 1022
19 01:30 北北西 1 10km以上 2 93 1022
19 01:00 北北西 2 10km以上 2 93 1022
19 00:30 北北西 1 10km以上 3 93 1022
19 00:00 不定 1 10km以上 3 93 1021
18 23:30 北北西 2 10km以上 3 93 1021
18 23:00 北西 2 10km以上 4 87 1021
18 22:30 北北西 2 10km以上 4 87 1021
18 22:00 北西 2 10km以上 4 87 1021
18 21:30 北北東 1 10km以上 5 87 1021
18 21:00 北西 2 10km以上 5 81 1021
18 20:30 不定 1 10km以上 6 81 1020
18 20:00 2 10km以上 7 76 1020
18 19:30 北北西 2 10km以上 7 70 1020
18 19:00 2 10km以上 7 70 1020
18 18:30 北北西 3 10km以上 8 71 1020
18 18:00 2 10km以上 8 71 1019
18 17:30 3 10km以上 9 66 1019
18 17:00 4 10km以上 9 62 1018
18 16:30 5 10km以上 11 54 1018
18 16:00 6 10km以上 12 50 1018
18 15:30 8 10km以上 12 50 1017
18 15:00 8 10km以上 13 51 1017
18 14:30 8 10km以上 13 51 1016
18 14:00 8 10km以上 13 54 1016
18 13:30 8 10km以上 14 51 1016
18 13:00 7 10km以上 14 51 1016
18 12:30 6 10km以上 13 54 1016
18 12:00 5 10km以上 14 51 1016
18 11:30 5 10km以上 13 58 1016
18 11:00 5 10km以上 12 62 1016
18 10:30 6 10km以上 13 58 1016
18 10:00 5 10km以上 13 58 1016
18 09:30 北北西 7 10km以上 14 41 1016
18 09:00 不定 2 10km以上 12 58 1016
18 08:30 不定 1 10km以上 11 71 1016
18 08:00 2 10km以上 8 87 1016
18 07:30 不定 1 10km以上 6 93 1016
18 07:00 2 10km以上 5 93 1015 弱いしゅう雨
18 06:30 不定 1 10km以上 4 100 1015 弱いしゅう雨
18 06:00 不定 1 10km以上 3 100 1015
18 05:30 2 10km以上 2 93 1014
18 05:00 南南東 2 10km以上 2 93 1014
18 04:30 南南東 2 10km以上 2 93 1014
18 04:00 1 10km以上 2 93 1014
RJCC 191800Z 35004KT 9999 PRFG FEW010 01/M00 Q1020 RMK 1ST010 A3014 FG SE
RJCC 191730Z 35003KT 9999 PRFG FEW010 02/00 Q1020 RMK 1ST010 A3014 FG E-SE
RJCC 191700Z 33002KT 9999 PRFG FEW010 02/00 Q1021 RMK 1ST010 A3015 FG E-SE
RJCC 191630Z 33003KT 9999 FEW020 02/00 Q1021 RMK 1CU020 A3015
RJCC 191600Z VRB02KT 9999 FEW020 02/00 Q1020 RMK 1CU020 A3015
RJCC 191530Z 32003KT 9999 FEW020 02/01 Q1020 RMK 1CU020 A3014
RJCC 191500Z 03002KT 9999 FEW020 02/01 Q1020 RMK 1CU020 A3014
RJCC 191430Z 33003KT 9999 FEW020 02/01 Q1020 RMK 1CU020 A3014
RJCC 191400Z VRB01KT 9999 FEW020 02/01 Q1020 RMK 1CU020 A3014
RJCC 191330Z VRB01KT 9999 FEW020 04/02 Q1020 RMK 1CU020 A3014
RJCC 191300Z 20002KT 9999 FEW020 04/02 Q1020 RMK 1CU020 A3015
RJCC 191230Z VRB01KT 9999 FEW020 04/03 Q1021 RMK 1CU020 A3015
RJCC 191200Z 19002KT 9999 FEW020 04/03 Q1020 RMK 1CU020 A3014
RJCC 191130Z VRB01KT 9999 FEW020 05/04 Q1020 RMK 1CU020 A3014
RJCC 191100Z 14002KT 9999 FEW020 SCT/// 05/04 Q1020
RJCC 191030Z VRB01KT 9999 FEW020 SCT/// 06/04 Q1020
RJCC 191000Z 19003KT 140V240 9999 FEW020 SCT/// 07/04 Q1020 RMK 1CU020 A3013
RJCC 190930Z VRB02KT 9999 FEW020 SCT/// 06/03 Q1020
RJCC 190900Z VRB02KT 9999 FEW040 SCT/// 08/04 Q1020
RJCC 190830Z VRB02KT 9999 FEW040 SCT/// 10/04 Q1019
RJCC 190800Z 19003KT 170V230 9999 FEW040 SCT/// 10/04 Q1019 RMK 1CU040 A3011
RJCC 190730Z 21004KT 9999 FEW040 SCT/// 12/03 Q1019
RJCC 190700Z 21004KT 9999 FEW040 13/03 Q1019 RMK 1CU040 A3011
RJCC 190630Z 05004KT 9999 FEW040 14/03 Q1019 RMK 1CU040 A3012
RJCC 190600Z 03003KT 330V080 9999 FEW040 15/M02 Q1019 RMK 1CU040 A3012
RJCC 190530Z VRB02KT 9999 FEW040 15/01 Q1019 RMK 1CU040 A3012
RJCC 190500Z VRB03KT 9999 FEW040 15/01 Q1020 RMK 1CU040 A3012
RJCC 190430Z VRB04KT 9999 FEW040 15/01 Q1020 RMK 1CU040 A3012
RJCC 190400Z 35003KT 280V050 9999 FEW040 14/01 Q1020 RMK 1CU040 A3013
RJCC 190330Z 02005KT 300V100 9999 FEW040 14/01 Q1020 RMK 1CU040 A3014
RJCC 190300Z VRB03KT 9999 FEW030 14/01 Q1021 RMK 1CU030 A3016
RJCC 190230Z VRB03KT 9999 FEW030 13/01 Q1021 RMK 1CU030 A3017
RJCC 190200Z 04004KT 010V080 9999 FEW030 13/01 Q1022 RMK 1CU030 A3018
RJCC 190130Z VRB02KT 9999 FEW030 12/02 Q1022 RMK 1CU030 A3019
RJCC 190100Z VRB01KT 9999 FEW030 11/04 Q1022 RMK 1CU030 A3019
RJCC 190030Z 33004KT 290V010 9999 FEW030 10/04 Q1022 RMK 1CU030 A3020
RJCC 190000Z 32005KT 270V350 9999 FEW030 09/04 Q1022 RMK 1CU030 A3020
RJCC 182330Z 34003KT 290V020 9999 FEW025 07/03 Q1022 RMK 1CU025 A3020
RJCC 182300Z 33003KT 9999 FEW025 05/03 Q1022 RMK 1CU025 A3020
RJCC 182230Z 33004KT 8000 FEW001 04/02 Q1022 RMK 1ST001 A3020
RJCC 182200Z 34003KT 5000 R01L/P2000N R01R/P2000N BCFG BR FEW001 01/01 Q1022
RJCC 182139Z 34004KT 3200 R01L/P2000N R01R/1200VP2000N PRFG BR FEW001 00/00 Q1022 RMK 2ST001 A3019 1200NE-E FG NE-SE
RJCC 182130Z 35004KT 0900 R01L/P2000N R01R/1100VP2000D FZFG VV001 M00/M00 Q1022
RJCC 182118Z 35003KT 0900 R01L/P2000N R01R/0750VP2000D FZFG VV001 M01/M01 Q1022 RMK A3019 3000S
RJCC 182109Z 35003KT 4900 R19R///// R19L/0450VP2000D FZFG BKN001 M01/M01 Q1022 RMK 6ST001 A3019 0900NE-E
RJCC 182100Z 35003KT 9999 R19R/0800VP2000D R19L/1300VP2000D PRFG FEW001 M00/M01 Q1022 RMK 2ST001 A3019 1200NE FG NE-SE
RJCC 182030Z 35003KT 9999 R19R/1400VP2000D R19L/1900N BCFG FEW001 M00/M01 Q1022
RJCC 182024Z 33003KT 9999 R19R/2000N R19L/1100VP2000U PRFG FEW001 00/M00 Q1022 RMK 2ST001 A3019 1200E FG NE-SE
RJCC 182000Z 34002KT 8000 R19R///// R19L/0650V1100U PRFG BKN001 00/M01 Q1022
RJCC 181930Z 34004KT 8000 R19R/0550V1000N R19L/1100VP2000N PRFG BKN001 00/M00 Q1022
RJCC 181900Z 05002KT 9999 FEW001 01/00 Q1022 RMK 2ST001 A3018
RJCC 181830Z 01003KT 9999 FEW030 02/01 Q1022 RMK 1CU030 A3018
RJCC 181800Z 35003KT 9999 FEW030 01/M00 Q1022 RMK 1CU030 A3018
RJCC 181730Z 33003KT 200V340 9999 FEW030 02/01 Q1022 RMK 1CU030 A3018
RJCC 181700Z 35002KT 9999 FEW030 02/00 Q1022 RMK 1CU030 A3018
RJCC 181630Z 34002KT 9999 FEW030 02/01 Q1022 RMK 1CU030 A3018
RJCC 181600Z 34003KT 9999 FEW030 02/01 Q1022 RMK 1CU030 A3018
RJCC 181530Z 33002KT 9999 FEW030 03/02 Q1022 RMK 1CU030 A3018
RJCC 181500Z VRB02KT 9999 FEW030 03/02 Q1021 RMK 1CU030 A3017
RJCC 181430Z 33003KT 9999 FEW030 03/02 Q1021 RMK 1CU030 A3017
RJCC 181400Z 32004KT 9999 FEW030 04/02 Q1021 RMK 1CU030 A3017
RJCC 181330Z 33003KT 9999 FEW030 04/02 Q1021 RMK 1CU030 A3017
RJCC 181300Z 32003KT 9999 FEW030 04/02 Q1021 RMK 1CU030 A3017
RJCC 181230Z 02002KT 9999 FEW030 05/03 Q1021 RMK 1CU030 A3016
RJCC 181200Z 31004KT 9999 FEW030 05/02 Q1021 RMK 1CU030 A3015
RJCC 181130Z VRB02KT 9999 FEW030 06/03 Q1020 RMK 1CU030 A3014
RJCC 181100Z 35003KT 290V050 9999 FEW030 07/03 Q1020 RMK 1CU030 A3014
RJCC 181030Z 34004KT 9999 FEW030 07/02 Q1020 RMK 1CU030 A3013
RJCC 181000Z 36004KT 9999 FEW030 07/02 Q1020 RMK 1CU030 A3013
RJCC 180930Z 33006KT 9999 FEW030 08/03 Q1020 RMK 1CU030 A3012
RJCC 180900Z 35004KT 9999 FEW030 08/03 Q1019 RMK 1CU030 A3011
RJCC 180830Z 35006KT 9999 FEW030 09/03 Q1019 RMK 1CU030 A3010
RJCC 180800Z 35008KT 9999 FEW030 09/02 Q1018 RMK 1CU030 A3008
RJCC 180730Z 35009KT 9999 FEW030 11/02 Q1018 RMK 1CU030 A3007
RJCC 180700Z 35012KT 9999 FEW030 12/02 Q1018 RMK 1CU030 A3006
RJCC 180630Z 35015KT 9999 FEW030 12/02 Q1017 RMK 1CU030 A3005
RJCC 180600Z 35016KT 9999 FEW030 SCT060 13/03 Q1017 RMK 1CU030 3CU060 A3004
RJCC 180530Z 36016KT 9999 FEW030 13/03 Q1016 RMK 1CU030 A3003
RJCC 180500Z 35015KT 9999 FEW030 13/04 Q1016 RMK 1CU030 A3003
RJCC 180430Z 36015KT 9999 FEW030 SCT040 14/04 Q1016 RMK 1CU030 3CU040 A3002
RJCC 180400Z 36014KT 9999 FEW030 SCT045 14/04 Q1016 RMK 1CU030 3CU045 A3002
RJCC 180330Z 01012KT 9999 FEW030 SCT045 13/04 Q1016 RMK 1CU030 3CU045 A3001
RJCC 180300Z 35009KT 310V010 9999 FEW030 SCT050 14/04 Q1016 RMK 1CU030 4CU050 A3001
RJCC 180230Z 36009KT 9999 FEW030 SCT060 13/05 Q1016 RMK 1CU030 3CU060 A3002
RJCC 180200Z 35010KT 9999 FEW030 SCT060 12/05 Q1016 RMK 1CU030 4CU060 A3002
RJCC 180130Z 01011KT 9999 FEW030 SCT050 13/05 Q1016 RMK 1CU030 3CU050 A3002
RJCC 180100Z 01010KT 9999 FEW030 SCT050 13/05 Q1016 RMK 1CU030 4CU050 A3001
RJCC 180030Z 33014KT 9999 FEW030 BKN050 14/01 Q1016 RMK 1CU030 6CU050 A3001
RJCC 180000Z VRB03KT 9999 FEW020 12/04 Q1016 RMK 1CU020 A3001
RJCC 172330Z VRB02KT 9999 FEW020 11/06 Q1016 RMK 1CU020 A3000
RJCC 172300Z 17004KT 150V230 9999 FEW030 08/06 Q1016 RMK 1CU030 A3001
RJCC 172230Z VRB01KT 9999 FEW020 SCT050 06/05 Q1016 RMK 1CU020 3CU050 A3000
RJCC 172200Z 17003KT 9999 -SHRA FEW020 BKN045 05/04 Q1015 RMK 1CU020 6CU045 A3000
RJCC 172130Z VRB01KT 9999 -SHRA FEW020 BKN045 04/04 Q1015 RMK 1CU020 7CU045 A2999
RJCC 172100Z VRB01KT 9999 FEW020 BKN050 03/03 Q1015 RMK 1CU020 5CU050 A2998
RJCC 172030Z 18004KT 9999 FEW020 BKN050 02/01 Q1014 RMK 1CU020 5CU050 A2997
RJCC 172000Z 16003KT 9999 FEW020 02/01 Q1014 RMK 1CU020 A2997
RJCC 171930Z 15003KT 9999 FEW020 02/01 Q1014 RMK 1CU020 A2996
RJCC 171900Z 18002KT 9999 FEW020 SCT050 02/01 Q1014 RMK 1CU020 3CU050 A2996